sensor_id;sensor_type;location;lat;lon;timestamp;pressure;altitude;pressure_sealevel;temperature;humidity
62708;BME280;48769;51.624;5.886;2024-02-23T00:00:48;98620.44;;;5.33;100.00
62708;BME280;48769;51.624;5.886;2024-02-23T00:03:13;98618.16;;;5.28;100.00
62708;BME280;48769;51.624;5.886;2024-02-23T00:05:38;98619.81;;;5.29;100.00
62708;BME280;48769;51.624;5.886;2024-02-23T00:08:04;98626.56;;;5.33;100.00
62708;BME280;48769;51.624;5.886;2024-02-23T00:10:29;98636.81;;;5.36;100.00
62708;BME280;48769;51.624;5.886;2024-02-23T00:12:54;98630.09;;;5.32;100.00
62708;BME280;48769;51.624;5.886;2024-02-23T00:15:20;98639.09;;;5.28;100.00
62708;BME280;48769;51.624;5.886;2024-02-23T00:17:45;98642.84;;;5.24;100.00
62708;BME280;48769;51.624;5.886;2024-02-23T00:20:11;98643.06;;;5.21;100.00
62708;BME280;48769;51.624;5.886;2024-02-23T00:22:37;98648.09;;;5.24;100.00
62708;BME280;48769;51.624;5.886;2024-02-23T00:25:02;98642.22;;;5.21;100.00
62708;BME280;48769;51.624;5.886;2024-02-23T00:27:28;98648.28;;;5.21;100.00
62708;BME280;48769;51.624;5.886;2024-02-23T00:29:53;98655.50;;;5.18;100.00
62708;BME280;48769;51.624;5.886;2024-02-23T00:32:18;98653.06;;;5.14;100.00
62708;BME280;48769;51.624;5.886;2024-02-23T00:34:44;98662.53;;;5.17;100.00
62708;BME280;48769;51.624;5.886;2024-02-23T00:37:09;98661.22;;;5.10;100.00
62708;BME280;48769;51.624;5.886;2024-02-23T00:39:35;98656.91;;;5.09;100.00
62708;BME280;48769;51.624;5.886;2024-02-23T00:42:01;98659.94;;;5.03;100.00
62708;BME280;48769;51.624;5.886;2024-02-23T00:44:27;98663.28;;;5.05;100.00
62708;BME280;48769;51.624;5.886;2024-02-23T00:46:52;98674.59;;;5.05;100.00
62708;BME280;48769;51.624;5.886;2024-02-23T00:49:17;98669.38;;;5.05;100.00
62708;BME280;48769;51.624;5.886;2024-02-23T00:51:43;98680.47;;;5.09;100.00
62708;BME280;48769;51.624;5.886;2024-02-23T00:54:08;98686.16;;;5.15;100.00
62708;BME280;48769;51.624;5.886;2024-02-23T00:56:34;98686.25;;;5.14;100.00
62708;BME280;48769;51.624;5.886;2024-02-23T00:59:00;98687.94;;;5.15;100.00
62708;BME280;48769;51.624;5.886;2024-02-23T01:01:25;98697.25;;;5.19;100.00
62708;BME280;48769;51.624;5.886;2024-02-23T01:03:51;98698.03;;;5.21;100.00
62708;BME280;48769;51.624;5.886;2024-02-23T01:06:17;98690.69;;;5.26;100.00
62708;BME280;48769;51.624;5.886;2024-02-23T01:08:42;98691.84;;;5.22;100.00
62708;BME280;48769;51.624;5.886;2024-02-23T01:11:08;98700.63;;;5.21;100.00
62708;BME280;48769;51.624;5.886;2024-02-23T01:13:33;98697.06;;;5.22;100.00
62708;BME280;48769;51.624;5.886;2024-02-23T01:15:58;98702.31;;;5.22;100.00
62708;BME280;48769;51.624;5.886;2024-02-23T01:18:24;98707.53;;;5.22;100.00
62708;BME280;48769;51.624;5.886;2024-02-23T01:20:49;98706.72;;;5.22;100.00
62708;BME280;48769;51.624;5.886;2024-02-23T01:23:14;98709.44;;;5.20;100.00
62708;BME280;48769;51.624;5.886;2024-02-23T01:25:40;98710.28;;;5.21;100.00
62708;BME280;48769;51.624;5.886;2024-02-23T01:28:06;98712.06;;;5.20;100.00
62708;BME280;48769;51.624;5.886;2024-02-23T01:30:31;98717.81;;;5.25;100.00
62708;BME280;48769;51.624;5.886;2024-02-23T01:32:56;98719.59;;;5.25;100.00
62708;BME280;48769;51.624;5.886;2024-02-23T01:35:22;98718.56;;;5.27;100.00
62708;BME280;48769;51.624;5.886;2024-02-23T01:37:47;98713.53;;;5.24;100.00
62708;BME280;48769;51.624;5.886;2024-02-23T01:40:13;98721.47;;;5.23;100.00
62708;BME280;48769;51.624;5.886;2024-02-23T01:42:38;98719.59;;;5.25;100.00
62708;BME280;48769;51.624;5.886;2024-02-23T01:45:04;98715.00;;;5.28;100.00
62708;BME280;48769;51.624;5.886;2024-02-23T01:47:29;98726.44;;;5.27;100.00
62708;BME280;48769;51.624;5.886;2024-02-23T01:49:57;98724.72;;;5.26;100.00
62708;BME280;48769;51.624;5.886;2024-02-23T01:52:23;98734.16;;;5.29;100.00
62708;BME280;48769;51.624;5.886;2024-02-23T01:54:48;98734.81;;;5.32;100.00
62708;BME280;48769;51.624;5.886;2024-02-23T01:57:14;98735.00;;;5.29;100.00
62708;BME280;48769;51.624;5.886;2024-02-23T01:59:39;98726.03;;;5.33;100.00
62708;BME280;48769;51.624;5.886;2024-02-23T02:02:05;98740.03;;;5.32;100.00
62708;BME280;48769;51.624;5.886;2024-02-23T02:04:30;98744.63;;;5.29;100.00
62708;BME280;48769;51.624;5.886;2024-02-23T02:06:57;98749.59;;;5.33;100.00
62708;BME280;48769;51.624;5.886;2024-02-23T02:09:23;98752.41;;;5.30;100.00
62708;BME280;48769;51.624;5.886;2024-02-23T02:11:50;98745.47;;;5.29;100.00
62708;BME280;48769;51.624;5.886;2024-02-23T02:14:16;98759.50;;;5.28;100.00
62708;BME280;48769;51.624;5.886;2024-02-23T02:16:41;98748.19;;;5.28;100.00
62708;BME280;48769;51.624;5.886;2024-02-23T02:19:08;98746.63;;;5.25;100.00
62708;BME280;48769;51.624;5.886;2024-02-23T02:21:34;98748.50;;;5.23;100.00
62708;BME280;48769;51.624;5.886;2024-02-23T02:24:00;98752.59;;;5.27;100.00
62708;BME280;48769;51.624;5.886;2024-02-23T02:26:25;98758.75;;;5.26;100.00
62708;BME280;48769;51.624;5.886;2024-02-23T02:28:50;98761.38;;;5.26;100.00
62708;BME280;48769;51.624;5.886;2024-02-23T02:31:17;98761.19;;;5.29;100.00
62708;BME280;48769;51.624;5.886;2024-02-23T02:33:43;98769.34;;;5.25;100.00
62708;BME280;48769;51.624;5.886;2024-02-23T02:36:09;98776.53;;;5.21;100.00
62708;BME280;48769;51.624;5.886;2024-02-23T02:38:34;98769.34;;;5.25;100.00
62708;BME280;48769;51.624;5.886;2024-02-23T02:40:59;98776.44;;;5.23;100.00
62708;BME280;48769;51.624;5.886;2024-02-23T02:43:28;98779.16;;;5.21;100.00
62708;BME280;48769;51.624;5.886;2024-02-23T02:45:53;98787.09;;;5.20;100.00
62708;BME280;48769;51.624;5.886;2024-02-23T02:48:19;98772.25;;;5.20;100.00
62708;BME280;48769;51.624;5.886;2024-02-23T02:50:44;98775.78;;;5.19;100.00
62708;BME280;48769;51.624;5.886;2024-02-23T02:53:10;98784.47;;;5.20;100.00
62708;BME280;48769;51.624;5.886;2024-02-23T02:55:42;98782.81;;;5.19;100.00
62708;BME280;48769;51.624;5.886;2024-02-23T02:58:08;98789.81;;;5.18;100.00
62708;BME280;48769;51.624;5.886;2024-02-23T03:00:33;98791.69;;;5.16;100.00
62708;BME280;48769;51.624;5.886;2024-02-23T03:02:59;98796.38;;;5.11;100.00
62708;BME280;48769;51.624;5.886;2024-02-23T03:05:24;98794.78;;;5.08;100.00
62708;BME280;48769;51.624;5.886;2024-02-23T03:07:49;98794.13;;;5.05;100.00
62708;BME280;48769;51.624;5.886;2024-02-23T03:10:15;98790.69;;;5.04;100.00
62708;BME280;48769;51.624;5.886;2024-02-23T03:12:41;98788.72;;;5.08;100.00
62708;BME280;48769;51.624;5.886;2024-02-23T03:15:06;98794.13;;;5.05;100.00
62708;BME280;48769;51.624;5.886;2024-02-23T03:17:32;98789.28;;;4.99;100.00
62708;BME280;48769;51.624;5.886;2024-02-23T03:19:58;98789.84;;;5.04;100.00
62708;BME280;48769;51.624;5.886;2024-02-23T03:22:23;98788.06;;;5.04;100.00
62708;BME280;48769;51.624;5.886;2024-02-23T03:24:48;98784.69;;;5.02;100.00
62708;BME280;48769;51.624;5.886;2024-02-23T03:27:14;98800.41;;;5.02;100.00
62708;BME280;48769;51.624;5.886;2024-02-23T03:29:39;98795.47;;;4.98;100.00
62708;BME280;48769;51.624;5.886;2024-02-23T03:32:05;98800.59;;;4.99;100.00
62708;BME280;48769;51.624;5.886;2024-02-23T03:34:31;98800.69;;;4.98;100.00
62708;BME280;48769;51.624;5.886;2024-02-23T03:36:56;98812.53;;;5.03;100.00
62708;BME280;48769;51.624;5.886;2024-02-23T03:39:23;98813.19;;;5.07;100.00
62708;BME280;48769;51.624;5.886;2024-02-23T03:41:48;98813.59;;;5.01;100.00
62708;BME280;48769;51.624;5.886;2024-02-23T03:44:14;98811.69;;;5.03;100.00
62708;BME280;48769;51.624;5.886;2024-02-23T03:46:39;98815.34;;;5.00;100.00
62708;BME280;48769;51.624;5.886;2024-02-23T03:49:04;98810.22;;;4.99;100.00
62708;BME280;48769;51.624;5.886;2024-02-23T03:51:30;98808.34;;;5.01;100.00
62708;BME280;48769;51.624;5.886;2024-02-23T03:53:57;98818.25;;;4.96;100.00
62708;BME280;48769;51.624;5.886;2024-02-23T03:56:22;98818.25;;;4.96;100.00
62708;BME280;48769;51.624;5.886;2024-02-23T03:58:48;98819.19;;;4.95;100.00
62708;BME280;48769;51.624;5.886;2024-02-23T04:01:13;98819.38;;;4.91;100.00
62708;BME280;48769;51.624;5.886;2024-02-23T04:03:38;98820.28;;;4.90;100.00
62708;BME280;48769;51.624;5.886;2024-02-23T04:06:04;98821.22;;;4.89;100.00
62708;BME280;48769;51.624;5.886;2024-02-23T04:08:29;98819.38;;;4.91;100.00
62708;BME280;48769;51.624;5.886;2024-02-23T04:10:55;98834.72;;;4.98;100.00
62708;BME280;48769;51.624;5.886;2024-02-23T04:13:20;98829.47;;;4.98;100.00
62708;BME280;48769;51.624;5.886;2024-02-23T04:15:46;98831.16;;;4.99;100.00
62708;BME280;48769;51.624;5.886;2024-02-23T04:18:11;98831.16;;;4.99;100.00
62708;BME280;48769;51.624;5.886;2024-02-23T04:20:37;98837.88;;;5.03;100.00
62708;BME280;48769;51.624;5.886;2024-02-23T04:23:02;98836.66;;;5.08;100.00
62708;BME280;48769;51.624;5.886;2024-02-23T04:25:27;98840.88;;;5.11;100.00
62708;BME280;48769;51.624;5.886;2024-02-23T04:27:53;98842.34;;;5.15;100.00
62708;BME280;48769;51.624;5.886;2024-02-23T04:30:19;98842.16;;;5.18;100.00
62708;BME280;48769;51.624;5.886;2024-02-23T04:32:44;98844.88;;;5.16;100.00
62708;BME280;48769;51.624;5.886;2024-02-23T04:35:16;98838.78;;;5.16;100.00
62708;BME280;48769;51.624;5.886;2024-02-23T04:37:45;98849.44;;;5.13;100.00
62708;BME280;48769;51.624;5.886;2024-02-23T04:40:11;98849.63;;;5.10;100.00
62708;BME280;48769;51.624;5.886;2024-02-23T04:42:37;98855.81;;;5.09;100.00
62708;BME280;48769;51.624;5.886;2024-02-23T04:45:04;98855.63;;;5.12;100.00
62708;BME280;48769;51.624;5.886;2024-02-23T04:47:29;98857.13;;;5.16;100.00
62708;BME280;48769;51.624;5.886;2024-02-23T04:49:55;98864.31;;;5.12;100.00
62708;BME280;48769;51.624;5.886;2024-02-23T04:52:20;98873.41;;;5.21;100.00
62708;BME280;48769;51.624;5.886;2024-02-23T04:54:45;98871.53;;;5.23;100.00
62708;BME280;48769;51.624;5.886;2024-02-23T04:57:11;98863.38;;;5.28;100.00
62708;BME280;48769;51.624;5.886;2024-02-23T04:59:36;98872.66;;;5.33;100.00
62708;BME280;48769;51.624;5.886;2024-02-23T05:02:01;98868.91;;;5.37;100.00
62708;BME280;48769;51.624;5.886;2024-02-23T05:04:26;98873.75;;;5.44;100.00
62708;BME280;48769;51.624;5.886;2024-02-23T05:06:52;98876.09;;;5.48;100.00
62708;BME280;48769;51.624;5.886;2024-02-23T05:09:18;98870.94;;;5.47;100.00
62708;BME280;48769;51.624;5.886;2024-02-23T05:11:43;98871.59;;;5.50;100.00
62708;BME280;48769;51.624;5.886;2024-02-23T05:14:11;98874.03;;;5.53;100.00
62708;BME280;48769;51.624;5.886;2024-02-23T05:16:36;98871.13;;;5.58;100.00
62708;BME280;48769;51.624;5.886;2024-02-23T05:19:02;98860.44;;;5.61;100.00
62708;BME280;48769;51.624;5.886;2024-02-23T05:21:27;98864.00;;;5.60;100.00
62708;BME280;48769;51.624;5.886;2024-02-23T05:23:53;98868.41;;;5.59;100.00
62708;BME280;48769;51.624;5.886;2024-02-23T05:26:18;98862.97;;;5.62;100.00
62708;BME280;48769;51.624;5.886;2024-02-23T05:28:43;98875.22;;;5.62;100.00
62708;BME280;48769;51.624;5.886;2024-02-23T05:31:09;98884.41;;;5.69;100.00
62708;BME280;48769;51.624;5.886;2024-02-23T05:33:35;98875.59;;;5.70;100.00
62708;BME280;48769;51.624;5.886;2024-02-23T05:36:00;98886.72;;;5.74;100.00
62708;BME280;48769;51.624;5.886;2024-02-23T05:38:25;98874.19;;;5.79;100.00
62708;BME280;48769;51.624;5.886;2024-02-23T05:40:51;98878.34;;;5.81;100.00
62708;BME280;48769;51.624;5.886;2024-02-23T05:43:28;98875.53;;;5.84;100.00
62708;BME280;48769;51.624;5.886;2024-02-23T05:45:53;98869.38;;;5.85;100.00
62708;BME280;48769;51.624;5.886;2024-02-23T05:48:22;98875.06;;;5.92;100.00
62708;BME280;48769;51.624;5.886;2024-02-23T05:50:47;98874.06;;;5.95;100.00
62708;BME280;48769;51.624;5.886;2024-02-23T05:53:12;98874.25;;;5.92;100.00
62708;BME280;48769;51.624;5.886;2024-02-23T05:55:38;98872.53;;;5.91;100.00
62708;BME280;48769;51.624;5.886;2024-02-23T05:58:03;98878.56;;;5.93;100.00
62708;BME280;48769;51.624;5.886;2024-02-23T06:00:30;98882.94;;;5.92;100.00
62708;BME280;48769;51.624;5.886;2024-02-23T06:02:56;98875.94;;;5.93;100.00
62708;BME280;48769;51.624;5.886;2024-02-23T06:05:22;98874.06;;;5.95;100.00
62708;BME280;48769;51.624;5.886;2024-02-23T06:07:47;98867.06;;;5.95;100.00
62708;BME280;48769;51.624;5.886;2024-02-23T06:10:12;98878.25;;;5.97;100.00
62708;BME280;48769;51.624;5.886;2024-02-23T06:12:38;98866.75;;;6.00;100.00
62708;BME280;48769;51.624;5.886;2024-02-23T06:15:04;98862.06;;;6.05;100.00
62708;BME280;48769;51.624;5.886;2024-02-23T06:17:29;98856.69;;;6.06;100.00
62708;BME280;48769;51.624;5.886;2024-02-23T06:19:54;98860.56;;;6.01;100.00
62708;BME280;48769;51.624;5.886;2024-02-23T06:22:22;98868.97;;;6.06;100.00
62708;BME280;48769;51.624;5.886;2024-02-23T06:24:48;98856.63;;;6.08;100.00
62708;BME280;48769;51.624;5.886;2024-02-23T06:27:14;98860.06;;;6.08;100.00
62708;BME280;48769;51.624;5.886;2024-02-23T06:29:39;98858.38;;;6.07;100.00
62708;BME280;48769;51.624;5.886;2024-02-23T06:32:05;98861.56;;;6.13;100.00
62708;BME280;48769;51.624;5.886;2024-02-23T06:34:30;98853.06;;;6.09;100.00
62708;BME280;48769;51.624;5.886;2024-02-23T06:36:56;98841.81;;;6.07;100.00
62708;BME280;48769;51.624;5.886;2024-02-23T06:39:21;98862.59;;;6.10;100.00
62708;BME280;48769;51.624;5.886;2024-02-23T06:41:46;98852.66;;;6.15;100.00
62708;BME280;48769;51.624;5.886;2024-02-23T06:44:12;98848.31;;;6.14;100.00
62708;BME280;48769;51.624;5.886;2024-02-23T06:46:37;98863.97;;;6.16;100.00
62708;BME280;48769;51.624;5.886;2024-02-23T06:49:03;98864.53;;;6.21;100.00
62708;BME280;48769;51.624;5.886;2024-02-23T06:51:31;98863.06;;;6.29;100.00
62708;BME280;48769;51.624;5.886;2024-02-23T06:53:56;98856.91;;;6.30;100.00
62708;BME280;48769;51.624;5.886;2024-02-23T06:56:21;98854.91;;;6.34;100.00
62708;BME280;48769;51.624;5.886;2024-02-23T06:58:47;98856.47;;;6.37;100.00
62708;BME280;48769;51.624;5.886;2024-02-23T07:01:12;98855.00;;;6.32;100.00
62708;BME280;48769;51.624;5.886;2024-02-23T07:03:38;98855.56;;;6.38;100.00
62708;BME280;48769;51.624;5.886;2024-02-23T07:06:05;98853.84;;;6.37;100.00
62708;BME280;48769;51.624;5.886;2024-02-23T07:08:30;98855.56;;;6.38;100.00
62708;BME280;48769;51.624;5.886;2024-02-23T07:10:55;98849.78;;;6.45;100.00
62708;BME280;48769;51.624;5.886;2024-02-23T07:13:21;98855.78;;;6.47;100.00
62708;BME280;48769;51.624;5.886;2024-02-23T07:15:46;98854.94;;;6.47;100.00
62708;BME280;48769;51.624;5.886;2024-02-23T07:18:11;98858.50;;;6.46;100.00
62708;BME280;48769;51.624;5.886;2024-02-23T07:20:37;98851.47;;;6.46;100.00
62708;BME280;48769;51.624;5.886;2024-02-23T07:23:02;98861.88;;;6.48;100.00
62708;BME280;48769;51.624;5.886;2024-02-23T07:25:28;98875.50;;;6.53;100.00
62708;BME280;48769;51.624;5.886;2024-02-23T07:27:53;98878.13;;;6.53;100.00
62708;BME280;48769;51.624;5.886;2024-02-23T07:30:18;98875.28;;;6.56;100.00
62708;BME280;48769;51.624;5.886;2024-02-23T07:32:44;98873.41;;;6.58;100.00
62708;BME280;48769;51.624;5.886;2024-02-23T07:35:10;98875.22;;;6.58;100.00
62708;BME280;48769;51.624;5.886;2024-02-23T07:37:36;98876.78;;;6.60;100.00
62708;BME280;48769;51.624;5.886;2024-02-23T07:40:02;98880.97;;;6.63;100.00
62708;BME280;48769;51.624;5.886;2024-02-23T07:42:30;98871.34;;;6.63;100.00
62708;BME280;48769;51.624;5.886;2024-02-23T07:44:55;98867.66;;;6.66;100.00
62708;BME280;48769;51.624;5.886;2024-02-23T07:47:21;98875.94;;;6.72;100.00
62708;BME280;48769;51.624;5.886;2024-02-23T07:49:52;98872.19;;;6.76;100.00
62708;BME280;48769;51.624;5.886;2024-02-23T07:52:18;98872.19;;;6.76;100.00
62708;BME280;48769;51.624;5.886;2024-02-23T07:54:44;98869.69;;;6.88;100.00
62708;BME280;48769;51.624;5.886;2024-02-23T07:57:09;98872.44;;;6.99;100.00
62708;BME280;48769;51.624;5.886;2024-02-23T07:59:35;98863.72;;;7.97;100.00
62708;BME280;48769;51.624;5.886;2024-02-23T08:02:00;98849.31;;;9.97;100.00
62708;BME280;48769;51.624;5.886;2024-02-23T08:04:28;98842.56;;;10.69;100.00
62708;BME280;48769;51.624;5.886;2024-02-23T08:06:53;98830.75;;;11.15;100.00
62708;BME280;48769;51.624;5.886;2024-02-23T08:09:19;98834.06;;;10.44;100.00
62708;BME280;48769;51.624;5.886;2024-02-23T08:11:46;98849.88;;;9.57;100.00
62708;BME280;48769;51.624;5.886;2024-02-23T08:14:12;98844.56;;;8.90;100.00
62708;BME280;48769;51.624;5.886;2024-02-23T08:16:37;98839.25;;;8.56;100.00
62708;BME280;48769;51.624;5.886;2024-02-23T08:19:03;98852.28;;;8.34;100.00
62708;BME280;48769;51.624;5.886;2024-02-23T08:21:28;98855.72;;;8.23;100.00
62708;BME280;48769;51.624;5.886;2024-02-23T08:23:53;98850.97;;;8.04;100.00
62708;BME280;48769;51.624;5.886;2024-02-23T08:26:18;98855.88;;;7.85;100.00
62708;BME280;48769;51.624;5.886;2024-02-23T08:28:44;98848.75;;;7.87;100.00
62708;BME280;48769;51.624;5.886;2024-02-23T08:31:09;98854.94;;;7.86;100.00
62708;BME280;48769;51.624;5.886;2024-02-23T08:33:34;98859.25;;;7.87;100.00
62708;BME280;48769;51.624;5.886;2024-02-23T08:36:00;98854.22;;;7.84;100.00
62708;BME280;48769;51.624;5.886;2024-02-23T08:38:25;98847.47;;;7.80;100.00
62708;BME280;48769;51.624;5.886;2024-02-23T08:40:50;98844.13;;;7.78;100.00
62708;BME280;48769;51.624;5.886;2024-02-23T08:43:16;98847.38;;;7.81;100.00
62708;BME280;48769;51.624;5.886;2024-02-23T08:45:41;98846.41;;;7.82;100.00
62708;BME280;48769;51.624;5.886;2024-02-23T08:48:16;98851.91;;;7.79;100.00
62708;BME280;48769;51.624;5.886;2024-02-23T08:50:41;98834.81;;;7.73;100.00
62708;BME280;48769;51.624;5.886;2024-02-23T08:53:06;98845.72;;;7.80;100.00
62708;BME280;48769;51.624;5.886;2024-02-23T08:55:32;98846.19;;;7.85;100.00
62708;BME280;48769;51.624;5.886;2024-02-23T08:57:58;98839.53;;;7.92;100.00
62708;BME280;48769;51.624;5.886;2024-02-23T09:00:24;98831.66;;;7.92;100.00
62708;BME280;48769;51.624;5.886;2024-02-23T09:02:49;98837.34;;;7.86;100.00
62708;BME280;48769;51.624;5.886;2024-02-23T09:05:15;98827.94;;;7.84;100.00
62708;BME280;48769;51.624;5.886;2024-02-23T09:07:40;98817.91;;;7.89;100.00
62708;BME280;48769;51.624;5.886;2024-02-23T09:10:06;98824.44;;;8.66;100.00
62708;BME280;48769;51.624;5.886;2024-02-23T09:12:31;98824.00;;;8.95;100.00
62708;BME280;48769;51.624;5.886;2024-02-23T09:14:56;98829.84;;;8.65;100.00
62708;BME280;48769;51.624;5.886;2024-02-23T09:17:23;98818.63;;;8.39;100.00
62708;BME280;48769;51.624;5.886;2024-02-23T09:19:48;98836.75;;;8.31;100.00
62708;BME280;48769;51.624;5.886;2024-02-23T09:22:14;98823.94;;;8.26;100.00
62708;BME280;48769;51.624;5.886;2024-02-23T09:24:41;98838.38;;;8.20;100.00
62708;BME280;48769;51.624;5.886;2024-02-23T09:27:06;98821.84;;;8.18;100.00
62708;BME280;48769;51.624;5.886;2024-02-23T09:29:32;98847.53;;;8.15;100.00
62708;BME280;48769;51.624;5.886;2024-02-23T09:31:58;98829.72;;;8.07;100.00
62708;BME280;48769;51.624;5.886;2024-02-23T09:34:24;98828.88;;;8.07;100.00
62708;BME280;48769;51.624;5.886;2024-02-23T09:36:49;98829.41;;;7.99;100.00
62708;BME280;48769;51.624;5.886;2024-02-23T09:39:15;98830.38;;;7.98;100.00
62708;BME280;48769;51.624;5.886;2024-02-23T09:41:42;98838.16;;;8.00;100.00
62708;BME280;48769;51.624;5.886;2024-02-23T09:44:07;98831.59;;;8.05;100.00
62708;BME280;48769;51.624;5.886;2024-02-23T09:46:51;98829.72;;;8.07;100.00
62708;BME280;48769;51.624;5.886;2024-02-23T09:49:17;98833.41;;;8.05;100.00
62708;BME280;48769;51.624;5.886;2024-02-23T09:51:42;98846.94;;;8.11;100.00
62708;BME280;48769;51.624;5.886;2024-02-23T09:54:09;98838.97;;;8.24;100.00
62708;BME280;48769;51.624;5.886;2024-02-23T09:56:34;98835.06;;;8.30;100.00
62708;BME280;48769;51.624;5.886;2024-02-23T09:59:02;98847.88;;;8.34;100.00
62708;BME280;48769;51.624;5.886;2024-02-23T10:01:29;98843.91;;;8.29;100.00
62708;BME280;48769;51.624;5.886;2024-02-23T10:03:59;98847.94;;;8.22;100.00
62708;BME280;48769;51.624;5.886;2024-02-23T10:06:25;98862.16;;;8.19;100.00
62708;BME280;48769;51.624;5.886;2024-02-23T10:08:51;98863.94;;;8.18;100.00
62708;BME280;48769;51.624;5.886;2024-02-23T10:11:24;98866.47;;;8.20;100.00
62708;BME280;48769;51.624;5.886;2024-02-23T10:13:50;98865.34;;;8.11;100.00
62708;BME280;48769;51.624;5.886;2024-02-23T10:16:17;98869.91;;;8.09;100.00
62708;BME280;48769;51.624;5.886;2024-02-23T10:18:45;98877.03;;;8.07;100.00
62708;BME280;48769;51.624;5.886;2024-02-23T10:21:12;98876.31;;;8.05;100.00
62708;BME280;48769;51.624;5.886;2024-02-23T10:23:37;98892.81;;;8.07;100.00
62708;BME280;48769;51.624;5.886;2024-02-23T10:26:05;98890.94;;;8.09;100.00
62708;BME280;48769;51.624;5.886;2024-02-23T10:28:31;98878.72;;;8.08;100.00
62708;BME280;48769;51.624;5.886;2024-02-23T10:30:56;98884.94;;;8.07;100.00
62708;BME280;48769;51.624;5.886;2024-02-23T10:33:22;98889.22;;;8.08;100.00
62708;BME280;48769;51.624;5.886;2024-02-23T10:35:55;98888.53;;;8.06;100.00
62708;BME280;48769;51.624;5.886;2024-02-23T10:38:23;98904.53;;;8.03;100.00
62708;BME280;48769;51.624;5.886;2024-02-23T10:40:49;98904.75;;;8.00;100.00
62708;BME280;48769;51.624;5.886;2024-02-23T10:43:19;98904.97;;;7.97;100.00
62708;BME280;48769;51.624;5.886;2024-02-23T10:45:46;98915.25;;;8.00;100.00
62708;BME280;48769;51.624;5.886;2024-02-23T10:48:11;98914.50;;;7.98;100.00
62708;BME280;48769;51.624;5.886;2024-02-23T10:50:39;98926.69;;;7.99;100.00
62708;BME280;48769;51.624;5.886;2024-02-23T10:53:07;98922.09;;;8.03;100.00
62708;BME280;48769;51.624;5.886;2024-02-23T10:55:36;98910.28;;;8.08;100.00
62708;BME280;48769;51.624;5.886;2024-02-23T10:58:02;98931.94;;;8.12;100.00
62708;BME280;48769;51.624;5.886;2024-02-23T11:00:29;98920.97;;;8.18;100.00
62708;BME280;48769;51.624;5.886;2024-02-23T11:03:02;98912.75;;;8.23;100.00
62708;BME280;48769;51.624;5.886;2024-02-23T11:05:29;98922.72;;;8.30;100.00
62708;BME280;48769;51.624;5.886;2024-02-23T11:07:58;98918.63;;;8.39;100.00
62708;BME280;48769;51.624;5.886;2024-02-23T11:10:24;98915.16;;;8.38;100.00
62708;BME280;48769;51.624;5.886;2024-02-23T11:13:07;98923.81;;;8.52;100.00
62708;BME280;48769;51.624;5.886;2024-02-23T11:15:33;98927.75;;;8.57;100.00
62708;BME280;48769;51.624;5.886;2024-02-23T11:18:21;98922.94;;;8.51;100.00
62708;BME280;48769;51.624;5.886;2024-02-23T11:20:56;98932.63;;;8.51;100.00
62708;BME280;48769;51.624;5.886;2024-02-23T11:23:23;98929.31;;;8.49;100.00
62708;BME280;48769;51.624;5.886;2024-02-23T11:26:04;98929.97;;;8.39;100.00
62708;BME280;48769;51.624;5.886;2024-02-23T11:28:31;98923.44;;;8.32;100.00
62708;BME280;48769;51.624;5.886;2024-02-23T11:30:57;98925.47;;;8.29;100.00
62708;BME280;48769;51.624;5.886;2024-02-23T11:33:28;98929.56;;;8.33;100.00
62708;BME280;48769;51.624;5.886;2024-02-23T11:36:04;98923.91;;;8.26;100.00
62708;BME280;48769;51.624;5.886;2024-02-23T11:38:30;98922.38;;;8.35;100.00
62708;BME280;48769;51.624;5.886;2024-02-23T11:40:55;98929.56;;;8.33;100.00
62708;BME280;48769;51.624;5.886;2024-02-23T11:43:21;98929.31;;;8.36;100.00
62708;BME280;48769;51.624;5.886;2024-02-23T11:45:47;98932.28;;;8.31;100.00
62708;BME280;48769;51.624;5.886;2024-02-23T11:48:12;98941.97;;;8.31;100.00
62708;BME280;48769;51.624;5.886;2024-02-23T11:50:38;98930.59;;;8.30;100.00
62708;BME280;48769;51.624;5.886;2024-02-23T11:53:03;98939.03;;;8.35;100.00
62708;BME280;48769;51.624;5.886;2024-02-23T11:55:30;98933.84;;;8.34;100.00
62708;BME280;48769;51.624;5.886;2024-02-23T11:57:55;98951.44;;;8.33;100.00
62708;BME280;48769;51.624;5.886;2024-02-23T12:00:20;98935.88;;;8.30;100.00
62708;BME280;48769;51.624;5.886;2024-02-23T12:02:46;98947.00;;;8.34;100.00
62708;BME280;48769;51.624;5.886;2024-02-23T12:05:14;98946.59;;;8.40;100.00
62708;BME280;48769;51.624;5.886;2024-02-23T12:07:40;98942.47;;;8.36;100.00
62708;BME280;48769;51.624;5.886;2024-02-23T12:10:06;98940.50;;;8.39;100.00
62708;BME280;48769;51.624;5.886;2024-02-23T12:12:32;98947.44;;;8.40;100.00
62708;BME280;48769;51.624;5.886;2024-02-23T12:14:58;98941.34;;;8.40;100.00
62708;BME280;48769;51.624;5.886;2024-02-23T12:17:24;98944.94;;;8.39;100.00
62708;BME280;48769;51.624;5.886;2024-02-23T12:19:58;98941.34;;;8.40;100.00
62708;BME280;48769;51.624;5.886;2024-02-23T12:22:24;98943.00;;;8.41;100.00
62708;BME280;48769;51.624;5.886;2024-02-23T12:24:50;98948.03;;;8.44;100.00
62708;BME280;48769;51.624;5.886;2024-02-23T12:27:18;98950.34;;;8.49;100.00
62708;BME280;48769;51.624;5.886;2024-02-23T12:29:54;98947.94;;;8.46;100.00
62708;BME280;48769;51.624;5.886;2024-02-23T12:32:20;98947.59;;;8.50;100.00
62708;BME280;48769;51.624;5.886;2024-02-23T12:34:46;98954.75;;;8.48;100.00
62708;BME280;48769;51.624;5.886;2024-02-23T12:37:22;98942.00;;;8.55;100.00
62708;BME280;48769;51.624;5.886;2024-02-23T12:39:53;98955.28;;;8.53;100.00
62708;BME280;48769;51.624;5.886;2024-02-23T12:42:18;98945.47;;;8.55;100.00
62708;BME280;48769;51.624;5.886;2024-02-23T12:44:44;98948.81;;;8.57;100.00
62708;BME280;48769;51.624;5.886;2024-02-23T12:47:10;98944.97;;;8.50;100.00
62708;BME280;48769;51.624;5.886;2024-02-23T12:49:35;98957.91;;;8.53;100.00
62708;BME280;48769;51.624;5.886;2024-02-23T12:52:00;98949.03;;;8.54;100.00
62708;BME280;48769;51.624;5.886;2024-02-23T12:54:26;98952.19;;;8.59;100.00